PWSweather.com
Personal Weather Stations
Station Observations
HESKRFRR38
Schwerin, Germany, Klein RogahnDE 19073

Schwerin, GermanyKlein RogahnDE 19073

Lat: 53.6059537, Lon: 11.3412162

Elevation: 167.3226

Station Type: VantagePro2

wetter.hes61.de

High Low Average
Temperature 59.0°F15.0°C 33.4°F0.8°C 46.3°F7.9°C
Dew Point 39.2°F4.0°C 27.6°F-2.4°C 32.8°F0.4°C
Winds 12.0 mph 19.3 kmh 1.0 mph 1.6 kmh 6.0 mph E9.7 kmh E
Wind Gusts 21.0 mph33.8 kmh 5.0 mph8.0 kmh 11.0 mph17.7 kmh
Humidity 93% 32% 63%
Pressure 30.25 in1024.4 mb 30.14 in1020.7 mb -
Precipitation 0.00 in0.0 mm - -
Hour Temp Dew Point Humidity Winds Wind Gusts Pressure Precip Precip Rate Daily Precip Total
12:00 AM 36.9°F2.7°C 33.4°F0.8°C 87% 7.0 mph ENE11.3 kmh ENE 13.0 mph20.9 kmh 30.25 in1024.4 mb 0.00 in0.0 mm 0.00 in0.0 mm 0.00 in0.0 mm
12:05 AM 36.7°F2.6°C 33.2°F0.7°C 87% 6.0 mph ENE9.7 kmh ENE 12.0 mph19.3 kmh 30.25 in1024.4 mb 0.00 in0.0 mm 0.00 in0.0 mm 0.00 in0.0 mm
12:10 AM 36.7°F2.6°C 33.2°F0.7°C 87% 6.0 mph ENE9.7 kmh ENE 11.0 mph17.7 kmh 30.25 in1024.4 mb 0.00 in0.0 mm 0.00 in0.0 mm 0.00 in0.0 mm
12:15 AM 36.6°F2.6°C 33.1°F0.6°C 87% 5.0 mph ENE8.0 kmh ENE 10.0 mph16.1 kmh 30.25 in1024.4 mb 0.00 in0.0 mm 0.00 in0.0 mm 0.00 in0.0 mm
12:20 AM 36.5°F2.5°C 33.0°F0.6°C 87% 6.0 mph ENE9.7 kmh ENE 10.0 mph16.1 kmh 30.25 in1024.4 mb 0.00 in0.0 mm 0.00 in0.0 mm 0.00 in0.0 mm
12:25 AM 36.3°F2.4°C 32.8°F0.4°C 87% 5.0 mph ENE8.0 kmh ENE 9.0 mph14.5 kmh 30.25 in1024.4 mb 0.00 in0.0 mm 0.00 in0.0 mm 0.00 in0.0 mm
12:30 AM 36.2°F2.3°C 32.7°F0.4°C 87% 5.0 mph ENE8.0 kmh ENE 10.0 mph16.1 kmh 30.25 in1024.4 mb 0.00 in0.0 mm 0.00 in0.0 mm 0.00 in0.0 mm
12:35 AM 36.2°F2.3°C 33.0°F0.6°C 88% 7.0 mph NE11.3 kmh NE 13.0 mph20.9 kmh 30.25 in1024.4 mb 0.00 in0.0 mm 0.00 in0.0 mm 0.00 in0.0 mm
12:40 AM 36.2°F2.3°C 32.7°F0.4°C 87% 7.0 mph ENE11.3 kmh ENE 12.0 mph19.3 kmh 30.25 in1024.4 mb 0.00 in0.0 mm 0.00 in0.0 mm 0.00 in0.0 mm
12:45 AM 36.1°F2.3°C 32.6°F0.3°C 87% 7.0 mph NE11.3 kmh NE 11.0 mph17.7 kmh 30.24 in1024.0 mb 0.00 in0.0 mm 0.00 in0.0 mm 0.00 in0.0 mm
12:50 AM 36.0°F2.2°C 32.5°F0.3°C 87% 5.0 mph ENE8.0 kmh ENE 10.0 mph16.1 kmh 30.24 in1024.0 mb 0.00 in0.0 mm 0.00 in0.0 mm 0.00 in0.0 mm
12:55 AM 35.9°F2.2°C 32.7°F0.4°C 88% 6.0 mph NE9.7 kmh NE 12.0 mph19.3 kmh 30.24 in1024.0 mb 0.00 in0.0 mm 0.00 in0.0 mm 0.00 in0.0 mm
01:00 AM 35.9°F2.2°C 32.7°F0.4°C 88% 6.0 mph ENE9.7 kmh ENE 10.0 mph16.1 kmh 30.24 in1024.0 mb 0.00 in0.0 mm 0.00 in0.0 mm 0.00 in0.0 mm
01:05 AM 35.8°F2.1°C 32.6°F0.3°C 88% 5.0 mph ENE8.0 kmh ENE 10.0 mph16.1 kmh 30.24 in1024.0 mb 0.00 in0.0 mm 0.00 in0.0 mm 0.00 in0.0 mm
01:10 AM 35.8°F2.1°C 32.6°F0.3°C 88% 7.0 mph NE11.3 kmh NE 12.0 mph19.3 kmh 30.24 in1024.0 mb 0.00 in0.0 mm 0.00 in0.0 mm 0.00 in0.0 mm
01:15 AM 35.8°F2.1°C 32.6°F0.3°C 88% 6.0 mph ENE9.7 kmh ENE 11.0 mph17.7 kmh 30.23 in1023.7 mb 0.00 in0.0 mm 0.00 in0.0 mm 0.00 in0.0 mm
01:20 AM 35.8°F2.1°C 32.6°F0.3°C 88% 6.0 mph ENE9.7 kmh ENE 10.0 mph16.1 kmh 30.23 in1023.7 mb 0.00 in0.0 mm 0.00 in0.0 mm 0.00 in0.0 mm
01:25 AM 35.6°F2.0°C 32.4°F0.2°C 88% 6.0 mph NE9.7 kmh NE 12.0 mph19.3 kmh 30.23 in1023.7 mb 0.00 in0.0 mm 0.00 in0.0 mm 0.00 in0.0 mm
01:30 AM 35.5°F1.9°C 32.3°F0.2°C 88% 6.0 mph ENE9.7 kmh ENE 12.0 mph19.3 kmh 30.23 in1023.7 mb 0.00 in0.0 mm 0.00 in0.0 mm 0.00 in0.0 mm
01:35 AM 35.5°F1.9°C 32.3°F0.2°C 88% 7.0 mph ENE11.3 kmh ENE 11.0 mph17.7 kmh 30.23 in1023.7 mb 0.00 in0.0 mm 0.00 in0.0 mm 0.00 in0.0 mm
01:40 AM 35.5°F1.9°C 32.3°F0.2°C 88% 8.0 mph ENE12.9 kmh ENE 13.0 mph20.9 kmh 30.22 in1023.4 mb 0.00 in0.0 mm 0.00 in0.0 mm 0.00 in0.0 mm
01:45 AM 35.4°F1.9°C 32.2°F0.1°C 88% 7.0 mph ENE11.3 kmh ENE 12.0 mph19.3 kmh 30.22 in1023.4 mb 0.00 in0.0 mm 0.00 in0.0 mm 0.00 in0.0 mm
01:50 AM 35.3°F1.8°C 32.1°F0.1°C 88% 7.0 mph ENE11.3 kmh ENE 11.0 mph17.7 kmh 30.22 in1023.4 mb 0.00 in0.0 mm 0.00 in0.0 mm 0.00 in0.0 mm
01:55 AM 35.2°F1.8°C 32.0°F0.0°C 88% 7.0 mph ENE11.3 kmh ENE 14.0 mph22.5 kmh 30.22 in1023.4 mb 0.00 in0.0 mm 0.00 in0.0 mm 0.00 in0.0 mm
02:00 AM 35.2°F1.8°C 32.0°F0.0°C 88% 7.0 mph ENE11.3 kmh ENE 14.0 mph22.5 kmh 30.22 in1023.4 mb 0.00 in0.0 mm 0.00 in0.0 mm 0.00 in0.0 mm
02:05 AM 35.2°F1.8°C 32.0°F0.0°C 88% 8.0 mph ENE12.9 kmh ENE 14.0 mph22.5 kmh 30.22 in1023.4 mb 0.00 in0.0 mm 0.00 in0.0 mm 0.00 in0.0 mm
02:10 AM 35.1°F1.7°C 31.9°F-0.1°C 88% 5.0 mph ENE8.0 kmh ENE 11.0 mph17.7 kmh 30.22 in1023.4 mb 0.00 in0.0 mm 0.00 in0.0 mm 0.00 in0.0 mm
02:15 AM 35.1°F1.7°C 31.9°F-0.1°C 88% 6.0 mph ENE9.7 kmh ENE 12.0 mph19.3 kmh 30.22 in1023.4 mb 0.00 in0.0 mm 0.00 in0.0 mm 0.00 in0.0 mm
02:20 AM 35.0°F1.7°C 31.8°F-0.1°C 88% 6.0 mph ENE9.7 kmh ENE 11.0 mph17.7 kmh 30.22 in1023.4 mb 0.00 in0.0 mm 0.00 in0.0 mm 0.00 in0.0 mm
02:25 AM 35.0°F1.7°C 31.8°F-0.1°C 88% 8.0 mph ENE12.9 kmh ENE 12.0 mph19.3 kmh 30.22 in1023.4 mb 0.00 in0.0 mm 0.00 in0.0 mm 0.00 in0.0 mm
02:30 AM 35.0°F1.7°C 31.8°F-0.1°C 88% 7.0 mph ENE11.3 kmh ENE 13.0 mph20.9 kmh 30.22 in1023.4 mb 0.00 in0.0 mm 0.00 in0.0 mm 0.00 in0.0 mm
02:35 AM 34.9°F1.6°C 31.7°F-0.2°C 88% 7.0 mph ENE11.3 kmh ENE 12.0 mph19.3 kmh 30.22 in1023.4 mb 0.00 in0.0 mm 0.00 in0.0 mm 0.00 in0.0 mm
02:40 AM 34.9°F1.6°C 32.0°F0.0°C 89% 7.0 mph ENE11.3 kmh ENE 11.0 mph17.7 kmh 30.22 in1023.4 mb 0.00 in0.0 mm 0.00 in0.0 mm 0.00 in0.0 mm
02:45 AM 34.8°F1.6°C 31.9°F-0.1°C 89% 6.0 mph ENE9.7 kmh ENE 11.0 mph17.7 kmh 30.22 in1023.4 mb 0.00 in0.0 mm 0.00 in0.0 mm 0.00 in0.0 mm
02:50 AM 34.7°F1.5°C 31.8°F-0.1°C 89% 6.0 mph ENE9.7 kmh ENE 11.0 mph17.7 kmh 30.22 in1023.4 mb 0.00 in0.0 mm 0.00 in0.0 mm 0.00 in0.0 mm
02:55 AM 34.6°F1.4°C 31.7°F-0.2°C 89% 6.0 mph ENE9.7 kmh ENE 11.0 mph17.7 kmh 30.22 in1023.4 mb 0.00 in0.0 mm 0.00 in0.0 mm 0.00 in0.0 mm
03:00 AM 34.6°F1.4°C 31.7°F-0.2°C 89% 6.0 mph NE9.7 kmh NE 13.0 mph20.9 kmh 30.22 in1023.4 mb 0.00 in0.0 mm 0.00 in0.0 mm 0.00 in0.0 mm
03:05 AM 34.6°F1.4°C 31.7°F-0.2°C 89% 6.0 mph ENE9.7 kmh ENE 13.0 mph20.9 kmh 30.22 in1023.4 mb 0.00 in0.0 mm 0.00 in0.0 mm 0.00 in0.0 mm
03:10 AM 34.6°F1.4°C 31.7°F-0.2°C 89% 6.0 mph ENE9.7 kmh ENE 12.0 mph19.3 kmh 30.22 in1023.4 mb 0.00 in0.0 mm 0.00 in0.0 mm 0.00 in0.0 mm
03:15 AM 34.6°F1.4°C 31.7°F-0.2°C 89% 5.0 mph ENE8.0 kmh ENE 12.0 mph19.3 kmh 30.22 in1023.4 mb 0.00 in0.0 mm 0.00 in0.0 mm 0.00 in0.0 mm
03:20 AM 34.5°F1.4°C 31.6°F-0.2°C 89% 4.0 mph ENE6.4 kmh ENE 10.0 mph16.1 kmh 30.22 in1023.4 mb 0.00 in0.0 mm 0.00 in0.0 mm 0.00 in0.0 mm
03:25 AM 34.4°F1.3°C 31.8°F-0.1°C 90% 4.0 mph NE6.4 kmh NE 9.0 mph14.5 kmh 30.22 in1023.4 mb 0.00 in0.0 mm 0.00 in0.0 mm 0.00 in0.0 mm
03:30 AM 34.3°F1.3°C 31.7°F-0.2°C 90% 4.0 mph NE6.4 kmh NE 11.0 mph17.7 kmh 30.22 in1023.4 mb 0.00 in0.0 mm 0.00 in0.0 mm 0.00 in0.0 mm
03:35 AM 34.3°F1.3°C 31.7°F-0.2°C 90% 3.0 mph ENE4.8 kmh ENE 10.0 mph16.1 kmh 30.22 in1023.4 mb 0.00 in0.0 mm 0.00 in0.0 mm 0.00 in0.0 mm
03:40 AM 34.2°F1.2°C 31.6°F-0.2°C 90% 3.0 mph ENE4.8 kmh ENE 10.0 mph16.1 kmh 30.22 in1023.4 mb 0.00 in0.0 mm 0.00 in0.0 mm 0.00 in0.0 mm
03:45 AM 34.3°F1.3°C 31.7°F-0.2°C 90% 6.0 mph ENE9.7 kmh ENE 11.0 mph17.7 kmh 30.22 in1023.4 mb 0.00 in0.0 mm 0.00 in0.0 mm 0.00 in0.0 mm
03:50 AM 34.2°F1.2°C 31.6°F-0.2°C 90% 3.0 mph NE4.8 kmh NE 10.0 mph16.1 kmh 30.22 in1023.4 mb 0.00 in0.0 mm 0.00 in0.0 mm 0.00 in0.0 mm
03:55 AM 34.2°F1.2°C 31.6°F-0.2°C 90% 4.0 mph ENE6.4 kmh ENE 8.0 mph12.9 kmh 30.22 in1023.4 mb 0.00 in0.0 mm 0.00 in0.0 mm 0.00 in0.0 mm
04:00 AM 34.2°F1.2°C 31.6°F-0.2°C 90% 4.0 mph ENE6.4 kmh ENE 10.0 mph16.1 kmh 30.22 in1023.4 mb 0.00 in0.0 mm 0.00 in0.0 mm 0.00 in0.0 mm
04:05 AM 34.1°F1.2°C 31.5°F-0.3°C 90% 4.0 mph ENE6.4 kmh ENE 10.0 mph16.1 kmh 30.21 in1023.0 mb 0.00 in0.0 mm 0.00 in0.0 mm 0.00 in0.0 mm
04:10 AM 34.1°F1.2°C 31.8°F-0.1°C 91% 4.0 mph ENE6.4 kmh ENE 10.0 mph16.1 kmh 30.21 in1023.0 mb 0.00 in0.0 mm 0.00 in0.0 mm 0.00 in0.0 mm
04:15 AM 34.0°F1.1°C 31.7°F-0.2°C 91% 4.0 mph NE6.4 kmh NE 9.0 mph14.5 kmh 30.21 in1023.0 mb 0.00 in0.0 mm 0.00 in0.0 mm 0.00 in0.0 mm
04:20 AM 34.0°F1.1°C 31.7°F-0.2°C 91% 3.0 mph ENE4.8 kmh ENE 9.0 mph14.5 kmh 30.21 in1023.0 mb 0.00 in0.0 mm 0.00 in0.0 mm 0.00 in0.0 mm
04:25 AM 33.9°F1.1°C 31.6°F-0.2°C 91% 3.0 mph ENE4.8 kmh ENE 9.0 mph14.5 kmh 30.21 in1023.0 mb 0.00 in0.0 mm 0.00 in0.0 mm 0.00 in0.0 mm
04:30 AM 33.9°F1.1°C 31.6°F-0.2°C 91% 4.0 mph ENE6.4 kmh ENE 9.0 mph14.5 kmh 30.21 in1023.0 mb 0.00 in0.0 mm 0.00 in0.0 mm 0.00 in0.0 mm
04:35 AM 33.7°F0.9°C 31.4°F-0.3°C 91% 3.0 mph NE4.8 kmh NE 8.0 mph12.9 kmh 30.21 in1023.0 mb 0.00 in0.0 mm 0.00 in0.0 mm 0.00 in0.0 mm
04:40 AM 33.6°F0.9°C 31.3°F-0.4°C 91% 3.0 mph ENE4.8 kmh ENE 10.0 mph16.1 kmh 30.21 in1023.0 mb 0.00 in0.0 mm 0.00 in0.0 mm 0.00 in0.0 mm
04:45 AM 33.7°F0.9°C 31.4°F-0.3°C 91% 4.0 mph ENE6.4 kmh ENE 9.0 mph14.5 kmh 30.21 in1023.0 mb 0.00 in0.0 mm 0.00 in0.0 mm 0.00 in0.0 mm
04:50 AM 33.8°F1.0°C 31.5°F-0.3°C 91% 4.0 mph ENE6.4 kmh ENE 9.0 mph14.5 kmh 30.21 in1023.0 mb 0.00 in0.0 mm 0.00 in0.0 mm 0.00 in0.0 mm
04:55 AM 33.7°F0.9°C 31.6°F-0.2°C 92% 3.0 mph ENE4.8 kmh ENE 8.0 mph12.9 kmh 30.21 in1023.0 mb 0.00 in0.0 mm 0.00 in0.0 mm 0.00 in0.0 mm
05:00 AM 33.7°F0.9°C 31.4°F-0.3°C 91% 4.0 mph NE6.4 kmh NE 11.0 mph17.7 kmh 30.21 in1023.0 mb 0.00 in0.0 mm 0.00 in0.0 mm 0.00 in0.0 mm
05:05 AM 33.6°F0.9°C 31.5°F-0.3°C 92% 4.0 mph ENE6.4 kmh ENE 8.0 mph12.9 kmh 30.21 in1023.0 mb 0.00 in0.0 mm 0.00 in0.0 mm 0.00 in0.0 mm
05:10 AM 33.6°F0.9°C 31.5°F-0.3°C 92% 5.0 mph ENE8.0 kmh ENE 10.0 mph16.1 kmh 30.21 in1023.0 mb 0.00 in0.0 mm 0.00 in0.0 mm 0.00 in0.0 mm
05:15 AM 33.6°F0.9°C 31.5°F-0.3°C 92% 4.0 mph NE6.4 kmh NE 7.0 mph11.3 kmh 30.21 in1023.0 mb 0.00 in0.0 mm 0.00 in0.0 mm 0.00 in0.0 mm
05:20 AM 33.5°F0.8°C 31.4°F-0.3°C 92% 4.0 mph NE6.4 kmh NE 7.0 mph11.3 kmh 30.21 in1023.0 mb 0.00 in0.0 mm 0.00 in0.0 mm 0.00 in0.0 mm
05:25 AM 33.5°F0.8°C 31.4°F-0.3°C 92% 5.0 mph NE8.0 kmh NE 10.0 mph16.1 kmh 30.21 in1023.0 mb 0.00 in0.0 mm 0.00 in0.0 mm 0.00 in0.0 mm
05:30 AM 33.5°F0.8°C 31.4°F-0.3°C 92% 3.0 mph NE4.8 kmh NE 6.0 mph9.7 kmh 30.20 in1022.7 mb 0.00 in0.0 mm 0.00 in0.0 mm 0.00 in0.0 mm
05:35 AM 33.4°F0.8°C 31.3°F-0.4°C 92% 4.0 mph NE6.4 kmh NE 8.0 mph12.9 kmh 30.20 in1022.7 mb 0.00 in0.0 mm 0.00 in0.0 mm 0.00 in0.0 mm
05:40 AM 33.5°F0.8°C 31.4°F-0.3°C 92% 3.0 mph NE4.8 kmh NE 9.0 mph14.5 kmh 30.21 in1023.0 mb 0.00 in0.0 mm 0.00 in0.0 mm 0.00 in0.0 mm
05:45 AM 33.5°F0.8°C 31.4°F-0.3°C 92% 4.0 mph NE6.4 kmh NE 7.0 mph11.3 kmh 30.21 in1023.0 mb 0.00 in0.0 mm 0.00 in0.0 mm 0.00 in0.0 mm
05:50 AM 33.7°F0.9°C 31.9°F-0.1°C 93% 4.0 mph NE6.4 kmh NE 8.0 mph12.9 kmh 30.21 in1023.0 mb 0.00 in0.0 mm 0.00 in0.0 mm 0.00 in0.0 mm
05:55 AM 33.9°F1.1°C 32.1°F0.1°C 93% 5.0 mph NE8.0 kmh NE 10.0 mph16.1 kmh 30.21 in1023.0 mb 0.00 in0.0 mm 0.00 in0.0 mm 0.00 in0.0 mm
06:00 AM 34.1°F1.2°C 32.3°F0.2°C 93% 5.0 mph NE8.0 kmh NE 10.0 mph16.1 kmh 30.21 in1023.0 mb 0.00 in0.0 mm 0.00 in0.0 mm 0.00 in0.0 mm
06:05 AM 34.4°F1.3°C 32.6°F0.3°C 93% 6.0 mph NE9.7 kmh NE 14.0 mph22.5 kmh 30.21 in1023.0 mb 0.00 in0.0 mm 0.00 in0.0 mm 0.00 in0.0 mm
06:10 AM 34.6°F1.4°C 32.5°F0.3°C 92% 6.0 mph ENE9.7 kmh ENE 11.0 mph17.7 kmh 30.21 in1023.0 mb 0.00 in0.0 mm 0.00 in0.0 mm 0.00 in0.0 mm
06:15 AM 34.8°F1.6°C 32.7°F0.4°C 92% 6.0 mph ENE9.7 kmh ENE 12.0 mph19.3 kmh 30.21 in1023.0 mb 0.00 in0.0 mm 0.00 in0.0 mm 0.00 in0.0 mm
06:20 AM 35.0°F1.7°C 32.9°F0.5°C 92% 6.0 mph ENE9.7 kmh ENE 11.0 mph17.7 kmh 30.21 in1023.0 mb 0.00 in0.0 mm 0.00 in0.0 mm 0.00 in0.0 mm
06:25 AM 35.1°F1.7°C 33.0°F0.6°C 92% 5.0 mph ENE8.0 kmh ENE 10.0 mph16.1 kmh 30.21 in1023.0 mb 0.00 in0.0 mm 0.00 in0.0 mm 0.00 in0.0 mm
06:30 AM 35.2°F1.8°C 33.1°F0.6°C 92% 7.0 mph NE11.3 kmh NE 12.0 mph19.3 kmh 30.21 in1023.0 mb 0.00 in0.0 mm 0.00 in0.0 mm 0.00 in0.0 mm
06:35 AM 35.3°F1.8°C 33.2°F0.7°C 92% 7.0 mph ENE11.3 kmh ENE 13.0 mph20.9 kmh 30.21 in1023.0 mb 0.00 in0.0 mm 0.00 in0.0 mm 0.00 in0.0 mm
06:40 AM 35.5°F1.9°C 33.4°F0.8°C 92% 7.0 mph ENE11.3 kmh ENE 10.0 mph16.1 kmh 30.21 in1023.0 mb 0.00 in0.0 mm 0.00 in0.0 mm 0.00 in0.0 mm
06:45 AM 35.6°F2.0°C 33.5°F0.8°C 92% 7.0 mph ENE11.3 kmh ENE 11.0 mph17.7 kmh 30.21 in1023.0 mb 0.00 in0.0 mm 0.00 in0.0 mm 0.00 in0.0 mm
06:50 AM 35.9°F2.2°C 33.5°F0.8°C 91% 8.0 mph ENE12.9 kmh ENE 13.0 mph20.9 kmh 30.21 in1023.0 mb 0.00 in0.0 mm 0.00 in0.0 mm 0.00 in0.0 mm
06:55 AM 36.3°F2.4°C 33.9°F1.1°C 91% 7.0 mph ENE11.3 kmh ENE 12.0 mph19.3 kmh 30.21 in1023.0 mb 0.00 in0.0 mm 0.00 in0.0 mm 0.00 in0.0 mm
07:00 AM 36.8°F2.7°C 34.4°F1.3°C 91% 7.0 mph ENE11.3 kmh ENE 13.0 mph20.9 kmh 30.20 in1022.7 mb 0.00 in0.0 mm 0.00 in0.0 mm 0.00 in0.0 mm
07:05 AM 37.0°F2.8°C 34.3°F1.3°C 90% 8.0 mph ENE12.9 kmh ENE 12.0 mph19.3 kmh 30.21 in1023.0 mb 0.00 in0.0 mm 0.00 in0.0 mm 0.00 in0.0 mm
07:15 AM 37.3°F2.9°C 34.4°F1.3°C 89% 10.0 mph ENE16.1 kmh ENE 15.0 mph24.1 kmh 30.20 in1022.7 mb 0.00 in0.0 mm 0.00 in0.0 mm 0.00 in0.0 mm
07:20 AM 37.5°F3.1°C 34.6°F1.4°C 89% 9.0 mph ENE14.5 kmh ENE 14.0 mph22.5 kmh 30.20 in1022.7 mb 0.00 in0.0 mm 0.00 in0.0 mm 0.00 in0.0 mm
07:25 AM 38.0°F3.3°C 34.8°F1.6°C 88% 8.0 mph ENE12.9 kmh ENE 13.0 mph20.9 kmh 30.20 in1022.7 mb 0.00 in0.0 mm 0.00 in0.0 mm 0.00 in0.0 mm
07:30 AM 38.3°F3.5°C 34.8°F1.6°C 87% 8.0 mph ENE12.9 kmh ENE 14.0 mph22.5 kmh 30.20 in1022.7 mb 0.00 in0.0 mm 0.00 in0.0 mm 0.00 in0.0 mm
07:35 AM 38.3°F3.5°C 34.5°F1.4°C 86% 8.0 mph ENE12.9 kmh ENE 13.0 mph20.9 kmh 30.20 in1022.7 mb 0.00 in0.0 mm 0.00 in0.0 mm 0.00 in0.0 mm
07:40 AM 38.6°F3.7°C 35.1°F1.7°C 87% 8.0 mph ENE12.9 kmh ENE 13.0 mph20.9 kmh 30.20 in1022.7 mb 0.00 in0.0 mm 0.00 in0.0 mm 0.00 in0.0 mm
07:45 AM 38.9°F3.8°C 35.1°F1.7°C 86% 7.0 mph ENE11.3 kmh ENE 11.0 mph17.7 kmh 30.20 in1022.7 mb 0.00 in0.0 mm 0.00 in0.0 mm 0.00 in0.0 mm
07:50 AM 39.2°F4.0°C 35.1°F1.7°C 85% 6.0 mph ENE9.7 kmh ENE 11.0 mph17.7 kmh 30.20 in1022.7 mb 0.00 in0.0 mm 0.00 in0.0 mm 0.00 in0.0 mm
07:55 AM 40.1°F4.5°C 36.0°F2.2°C 85% 7.0 mph ENE11.3 kmh ENE 11.0 mph17.7 kmh 30.20 in1022.7 mb 0.00 in0.0 mm 0.00 in0.0 mm 0.00 in0.0 mm
08:00 AM 40.0°F4.4°C 35.6°F2.0°C 84% 6.0 mph ENE9.7 kmh ENE 11.0 mph17.7 kmh 30.20 in1022.7 mb 0.00 in0.0 mm 0.00 in0.0 mm 0.00 in0.0 mm
08:05 AM 40.2°F4.6°C 35.5°F1.9°C 83% 7.0 mph ENE11.3 kmh ENE 13.0 mph20.9 kmh 30.20 in1022.7 mb 0.00 in0.0 mm 0.00 in0.0 mm 0.00 in0.0 mm
08:10 AM 40.7°F4.8°C 35.6°F2.0°C 82% 6.0 mph ENE9.7 kmh ENE 13.0 mph20.9 kmh 30.20 in1022.7 mb 0.00 in0.0 mm 0.00 in0.0 mm 0.00 in0.0 mm
08:15 AM 41.2°F5.1°C 36.1°F2.3°C 82% 6.0 mph ENE9.7 kmh ENE 10.0 mph16.1 kmh 30.20 in1022.7 mb 0.00 in0.0 mm 0.00 in0.0 mm 0.00 in0.0 mm
08:20 AM 41.3°F5.2°C 35.9°F2.2°C 81% 6.0 mph E9.7 kmh E 9.0 mph14.5 kmh 30.20 in1022.7 mb 0.00 in0.0 mm 0.00 in0.0 mm 0.00 in0.0 mm
08:25 AM 41.9°F5.5°C 36.2°F2.3°C 80% 6.0 mph ENE9.7 kmh ENE 10.0 mph16.1 kmh 30.20 in1022.7 mb 0.00 in0.0 mm 0.00 in0.0 mm 0.00 in0.0 mm
08:30 AM 42.1°F5.6°C 35.7°F2.1°C 78% 7.0 mph ENE11.3 kmh ENE 10.0 mph16.1 kmh 30.20 in1022.7 mb 0.00 in0.0 mm 0.00 in0.0 mm 0.00 in0.0 mm
08:35 AM 42.5°F5.8°C 36.1°F2.3°C 78% 7.0 mph ENE11.3 kmh ENE 11.0 mph17.7 kmh 30.20 in1022.7 mb 0.00 in0.0 mm 0.00 in0.0 mm 0.00 in0.0 mm
08:40 AM 42.7°F5.9°C 36.0°F2.2°C 77% 9.0 mph ENE14.5 kmh ENE 12.0 mph19.3 kmh 30.20 in1022.7 mb 0.00 in0.0 mm 0.00 in0.0 mm 0.00 in0.0 mm
08:45 AM 43.1°F6.2°C 36.4°F2.4°C 77% 9.0 mph ENE14.5 kmh ENE 13.0 mph20.9 kmh 30.20 in1022.7 mb 0.00 in0.0 mm 0.00 in0.0 mm 0.00 in0.0 mm
08:50 AM 43.9°F6.6°C 36.5°F2.5°C 75% 7.0 mph ENE11.3 kmh ENE 12.0 mph19.3 kmh 30.20 in1022.7 mb 0.00 in0.0 mm 0.00 in0.0 mm 0.00 in0.0 mm
08:55 AM 43.9°F6.6°C 36.2°F2.3°C 74% 7.0 mph ENE11.3 kmh ENE 13.0 mph20.9 kmh 30.20 in1022.7 mb 0.00 in0.0 mm 0.00 in0.0 mm 0.00 in0.0 mm
09:00 AM 44.3°F6.8°C 36.2°F2.3°C 73% 6.0 mph ENE9.7 kmh ENE 11.0 mph17.7 kmh 30.20 in1022.7 mb 0.00 in0.0 mm 0.00 in0.0 mm 0.00 in0.0 mm
09:05 AM 44.5°F6.9°C 36.4°F2.4°C 73% 8.0 mph ENE12.9 kmh ENE 12.0 mph19.3 kmh 30.20 in1022.7 mb 0.00 in0.0 mm 0.00 in0.0 mm 0.00 in0.0 mm
09:10 AM 44.7°F7.1°C 37.3°F2.9°C 75% 7.0 mph ENE11.3 kmh ENE 12.0 mph19.3 kmh 30.20 in1022.7 mb 0.00 in0.0 mm 0.00 in0.0 mm 0.00 in0.0 mm
09:15 AM 45.1°F7.3°C 36.3°F2.4°C 71% 8.0 mph E12.9 kmh E 13.0 mph20.9 kmh 30.20 in1022.7 mb 0.00 in0.0 mm 0.00 in0.0 mm 0.00 in0.0 mm
09:20 AM 45.5°F7.5°C 37.0°F2.8°C 72% 5.0 mph ENE8.0 kmh ENE 9.0 mph14.5 kmh 30.20 in1022.7 mb 0.00 in0.0 mm 0.00 in0.0 mm 0.00 in0.0 mm
09:25 AM 45.9°F7.7°C 36.7°F2.6°C 70% 5.0 mph E8.0 kmh E 10.0 mph16.1 kmh 30.20 in1022.7 mb 0.00 in0.0 mm 0.00 in0.0 mm 0.00 in0.0 mm
09:30 AM 45.9°F7.7°C 36.7°F2.6°C 70% 7.0 mph ENE11.3 kmh ENE 11.0 mph17.7 kmh 30.20 in1022.7 mb 0.00 in0.0 mm 0.00 in0.0 mm 0.00 in0.0 mm
09:35 AM 46.7°F8.2°C 37.4°F3.0°C 70% 7.0 mph ENE11.3 kmh ENE 12.0 mph19.3 kmh 30.20 in1022.7 mb 0.00 in0.0 mm 0.00 in0.0 mm 0.00 in0.0 mm
09:40 AM 47.1°F8.4°C 36.7°F2.6°C 67% 6.0 mph ENE9.7 kmh ENE 11.0 mph17.7 kmh 30.20 in1022.7 mb 0.00 in0.0 mm 0.00 in0.0 mm 0.00 in0.0 mm
09:45 AM 47.3°F8.5°C 36.9°F2.7°C 67% 7.0 mph ENE11.3 kmh ENE 12.0 mph19.3 kmh 30.20 in1022.7 mb 0.00 in0.0 mm 0.00 in0.0 mm 0.00 in0.0 mm
09:50 AM 47.8°F8.8°C 37.0°F2.8°C 66% 6.0 mph E9.7 kmh E 11.0 mph17.7 kmh 30.20 in1022.7 mb 0.00 in0.0 mm 0.00 in0.0 mm 0.00 in0.0 mm
09:55 AM 47.7°F8.7°C 36.9°F2.7°C 66% 8.0 mph ENE12.9 kmh ENE 12.0 mph19.3 kmh 30.20 in1022.7 mb 0.00 in0.0 mm 0.00 in0.0 mm 0.00 in0.0 mm
10:00 AM 48.2°F9.0°C 37.0°F2.8°C 65% 8.0 mph ENE12.9 kmh ENE 11.0 mph17.7 kmh 30.20 in1022.7 mb 0.00 in0.0 mm 0.00 in0.0 mm 0.00 in0.0 mm
10:05 AM 48.4°F9.1°C 37.6°F3.1°C 66% 6.0 mph ENE9.7 kmh ENE 9.0 mph14.5 kmh 30.20 in1022.7 mb 0.00 in0.0 mm 0.00 in0.0 mm 0.00 in0.0 mm
10:10 AM 49.0°F9.4°C 37.4°F3.0°C 64% 7.0 mph ENE11.3 kmh ENE 14.0 mph22.5 kmh 30.20 in1022.7 mb 0.00 in0.0 mm 0.00 in0.0 mm 0.00 in0.0 mm
10:15 AM 48.9°F9.4°C 36.9°F2.7°C 63% 6.0 mph ENE9.7 kmh ENE 11.0 mph17.7 kmh 30.20 in1022.7 mb 0.00 in0.0 mm 0.00 in0.0 mm 0.00 in0.0 mm
10:20 AM 49.7°F9.8°C 38.4°F3.6°C 65% 7.0 mph ENE11.3 kmh ENE 12.0 mph19.3 kmh 30.20 in1022.7 mb 0.00 in0.0 mm 0.00 in0.0 mm 0.00 in0.0 mm
10:25 AM 50.5°F10.3°C 39.2°F4.0°C 65% 5.0 mph ENE8.0 kmh ENE 10.0 mph16.1 kmh 30.20 in1022.7 mb 0.00 in0.0 mm 0.00 in0.0 mm 0.00 in0.0 mm
10:30 AM 50.3°F10.2°C 37.4°F3.0°C 61% 7.0 mph ENE11.3 kmh ENE 12.0 mph19.3 kmh 30.20 in1022.7 mb 0.00 in0.0 mm 0.00 in0.0 mm 0.00 in0.0 mm
10:35 AM 50.5°F10.3°C 37.6°F3.1°C 61% 7.0 mph E11.3 kmh E 13.0 mph20.9 kmh 30.20 in1022.7 mb 0.00 in0.0 mm 0.00 in0.0 mm 0.00 in0.0 mm
10:40 AM 50.5°F10.3°C 38.4°F3.6°C 63% 7.0 mph ENE11.3 kmh ENE 11.0 mph17.7 kmh 30.20 in1022.7 mb 0.00 in0.0 mm 0.00 in0.0 mm 0.00 in0.0 mm
10:45 AM 50.8°F10.4°C 37.8°F3.2°C 61% 6.0 mph ENE9.7 kmh ENE 9.0 mph14.5 kmh 30.20 in1022.7 mb 0.00 in0.0 mm 0.00 in0.0 mm 0.00 in0.0 mm
10:50 AM 51.6°F10.9°C 38.6°F3.7°C 61% 6.0 mph NE9.7 kmh NE 11.0 mph17.7 kmh 30.20 in1022.7 mb 0.00 in0.0 mm 0.00 in0.0 mm 0.00 in0.0 mm
10:55 AM 52.2°F11.2°C 38.3°F3.5°C 59% 1.0 mph NNE1.6 kmh NNE 9.0 mph14.5 kmh 30.20 in1022.7 mb 0.00 in0.0 mm 0.00 in0.0 mm 0.00 in0.0 mm
11:00 AM 52.6°F11.4°C 37.8°F3.2°C 57% 2.0 mph E3.2 kmh E 8.0 mph12.9 kmh 30.20 in1022.7 mb 0.00 in0.0 mm 0.00 in0.0 mm 0.00 in0.0 mm
11:05 AM 52.2°F11.2°C 37.9°F3.3°C 58% 3.0 mph E4.8 kmh E 8.0 mph12.9 kmh 30.19 in1022.4 mb 0.00 in0.0 mm 0.00 in0.0 mm 0.00 in0.0 mm
11:10 AM 52.9°F11.6°C 38.1°F3.4°C 57% 2.0 mph ESE3.2 kmh ESE 7.0 mph11.3 kmh 30.19 in1022.4 mb 0.00 in0.0 mm 0.00 in0.0 mm 0.00 in0.0 mm
11:15 AM 53.4°F11.9°C 37.6°F3.1°C 55% 4.0 mph ESE6.4 kmh ESE 10.0 mph16.1 kmh 30.19 in1022.4 mb 0.00 in0.0 mm 0.00 in0.0 mm 0.00 in0.0 mm
11:20 AM 54.2°F12.3°C 38.4°F3.6°C 55% 3.0 mph E4.8 kmh E 9.0 mph14.5 kmh 30.19 in1022.4 mb 0.00 in0.0 mm 0.00 in0.0 mm 0.00 in0.0 mm
11:25 AM 54.6°F12.6°C 37.8°F3.2°C 53% 4.0 mph NE6.4 kmh NE 12.0 mph19.3 kmh 30.19 in1022.4 mb 0.00 in0.0 mm 0.00 in0.0 mm 0.00 in0.0 mm
11:30 AM 53.5°F11.9°C 35.8°F2.1°C 51% 6.0 mph ENE9.7 kmh ENE 11.0 mph17.7 kmh 30.19 in1022.4 mb 0.00 in0.0 mm 0.00 in0.0 mm 0.00 in0.0 mm
11:35 AM 54.6°F12.6°C 37.8°F3.2°C 53% 4.0 mph ENE6.4 kmh ENE 10.0 mph16.1 kmh 30.18 in1022.0 mb 0.00 in0.0 mm 0.00 in0.0 mm 0.00 in0.0 mm
11:40 AM 54.1°F12.3°C 36.4°F2.4°C 51% 4.0 mph ENE6.4 kmh ENE 13.0 mph20.9 kmh 30.18 in1022.0 mb 0.00 in0.0 mm 0.00 in0.0 mm 0.00 in0.0 mm
11:45 AM 55.0°F12.8°C 35.7°F2.1°C 48% 5.0 mph ENE8.0 kmh ENE 11.0 mph17.7 kmh 30.18 in1022.0 mb 0.00 in0.0 mm 0.00 in0.0 mm 0.00 in0.0 mm
11:50 AM 55.2°F12.9°C 32.5°F0.3°C 42% 6.0 mph SE9.7 kmh SE 11.0 mph17.7 kmh 30.18 in1022.0 mb 0.00 in0.0 mm 0.00 in0.0 mm 0.00 in0.0 mm
11:55 AM 55.1°F12.8°C 30.0°F-1.1°C 38% 9.0 mph SE14.5 kmh SE 14.0 mph22.5 kmh 30.18 in1022.0 mb 0.00 in0.0 mm 0.00 in0.0 mm 0.00 in0.0 mm
12:00 PM 54.2°F12.3°C 31.0°F-0.6°C 41% 7.0 mph E11.3 kmh E 12.0 mph19.3 kmh 30.18 in1022.0 mb 0.00 in0.0 mm 0.00 in0.0 mm 0.00 in0.0 mm
12:05 PM 54.1°F12.3°C 31.5°F-0.3°C 42% 5.0 mph SSE8.0 kmh SSE 13.0 mph20.9 kmh 30.18 in1022.0 mb 0.00 in0.0 mm 0.00 in0.0 mm 0.00 in0.0 mm
12:10 PM 55.1°F12.8°C 33.0°F0.6°C 43% 5.0 mph SE8.0 kmh SE 15.0 mph24.1 kmh 30.18 in1022.0 mb 0.00 in0.0 mm 0.00 in0.0 mm 0.00 in0.0 mm
12:15 PM 54.1°F12.3°C 31.5°F-0.3°C 42% 6.0 mph ESE9.7 kmh ESE 14.0 mph22.5 kmh 30.17 in1021.7 mb 0.00 in0.0 mm 0.00 in0.0 mm 0.00 in0.0 mm
12:20 PM 55.2°F12.9°C 33.7°F0.9°C 44% 7.0 mph SE11.3 kmh SE 15.0 mph24.1 kmh 30.17 in1021.7 mb 0.00 in0.0 mm 0.00 in0.0 mm 0.00 in0.0 mm
12:25 PM 54.8°F12.7°C 33.9°F1.1°C 45% 2.0 mph SE3.2 kmh SE 7.0 mph11.3 kmh 30.17 in1021.7 mb 0.00 in0.0 mm 0.00 in0.0 mm 0.00 in0.0 mm
12:30 PM 55.9°F13.3°C 33.1°F0.6°C 42% 4.0 mph ENE6.4 kmh ENE 10.0 mph16.1 kmh 30.17 in1021.7 mb 0.00 in0.0 mm 0.00 in0.0 mm 0.00 in0.0 mm
12:35 PM 55.4°F13.0°C 33.3°F0.7°C 43% 6.0 mph E9.7 kmh E 13.0 mph20.9 kmh 30.17 in1021.7 mb 0.00 in0.0 mm 0.00 in0.0 mm 0.00 in0.0 mm
12:40 PM 55.2°F12.9°C 33.1°F0.6°C 43% 7.0 mph ESE11.3 kmh ESE 14.0 mph22.5 kmh 30.17 in1021.7 mb 0.00 in0.0 mm 0.00 in0.0 mm 0.00 in0.0 mm
12:45 PM 55.3°F12.9°C 32.6°F0.3°C 42% 4.0 mph SE6.4 kmh SE 10.0 mph16.1 kmh 30.17 in1021.7 mb 0.00 in0.0 mm 0.00 in0.0 mm 0.00 in0.0 mm
12:50 PM 56.6°F13.7°C 34.4°F1.3°C 43% 3.0 mph SW4.8 kmh SW 9.0 mph14.5 kmh 30.16 in1021.3 mb 0.00 in0.0 mm 0.00 in0.0 mm 0.00 in0.0 mm
12:55 PM 56.6°F13.7°C 34.4°F1.3°C 43% 7.0 mph ESE11.3 kmh ESE 14.0 mph22.5 kmh 30.17 in1021.7 mb 0.00 in0.0 mm 0.00 in0.0 mm 0.00 in0.0 mm
01:00 PM 55.8°F13.2°C 33.6°F0.9°C 43% 3.0 mph SE4.8 kmh SE 7.0 mph11.3 kmh 30.16 in1021.3 mb 0.00 in0.0 mm 0.00 in0.0 mm 0.00 in0.0 mm
01:05 PM 56.5°F13.6°C 33.7°F0.9°C 42% 3.0 mph E4.8 kmh E 10.0 mph16.1 kmh 30.16 in1021.3 mb 0.00 in0.0 mm 0.00 in0.0 mm 0.00 in0.0 mm
01:10 PM 56.2°F13.4°C 32.8°F0.4°C 41% 4.0 mph SE6.4 kmh SE 12.0 mph19.3 kmh 30.16 in1021.3 mb 0.00 in0.0 mm 0.00 in0.0 mm 0.00 in0.0 mm
01:15 PM 56.6°F13.7°C 32.6°F0.3°C 40% 7.0 mph ESE11.3 kmh ESE 14.0 mph22.5 kmh 30.16 in1021.3 mb 0.00 in0.0 mm 0.00 in0.0 mm 0.00 in0.0 mm
01:20 PM 57.0°F13.9°C 31.6°F-0.2°C 38% 7.0 mph E11.3 kmh E 15.0 mph24.1 kmh 30.16 in1021.3 mb 0.00 in0.0 mm 0.00 in0.0 mm 0.00 in0.0 mm
01:25 PM 56.8°F13.8°C 32.7°F0.4°C 40% 5.0 mph SE8.0 kmh SE 12.0 mph19.3 kmh 30.16 in1021.3 mb 0.00 in0.0 mm 0.00 in0.0 mm 0.00 in0.0 mm
01:30 PM 57.0°F13.9°C 32.3°F0.2°C 39% 6.0 mph SE9.7 kmh SE 13.0 mph20.9 kmh 30.16 in1021.3 mb 0.00 in0.0 mm 0.00 in0.0 mm 0.00 in0.0 mm
01:35 PM 57.2°F14.0°C 31.8°F-0.1°C 38% 2.0 mph ESE3.2 kmh ESE 10.0 mph16.1 kmh 30.16 in1021.3 mb 0.00 in0.0 mm 0.00 in0.0 mm 0.00 in0.0 mm
01:40 PM 57.8°F14.3°C 33.0°F0.6°C 39% 8.0 mph NE12.9 kmh NE 14.0 mph22.5 kmh 30.16 in1021.3 mb 0.00 in0.0 mm 0.00 in0.0 mm 0.00 in0.0 mm
01:45 PM 56.8°F13.8°C 33.4°F0.8°C 41% 6.0 mph E9.7 kmh E 11.0 mph17.7 kmh 30.16 in1021.3 mb 0.00 in0.0 mm 0.00 in0.0 mm 0.00 in0.0 mm
01:50 PM 56.5°F13.6°C 31.8°F-0.1°C 39% 4.0 mph NE6.4 kmh NE 12.0 mph19.3 kmh 30.16 in1021.3 mb 0.00 in0.0 mm 0.00 in0.0 mm 0.00 in0.0 mm
01:55 PM 57.4°F14.1°C 32.6°F0.3°C 39% 7.0 mph E11.3 kmh E 18.0 mph29.0 kmh 30.15 in1021.0 mb 0.00 in0.0 mm 0.00 in0.0 mm 0.00 in0.0 mm
02:00 PM 57.9°F14.4°C 32.5°F0.3°C 38% 5.0 mph NE8.0 kmh NE 14.0 mph22.5 kmh 30.16 in1021.3 mb 0.00 in0.0 mm 0.00 in0.0 mm 0.00 in0.0 mm
02:05 PM 57.6°F14.2°C 33.5°F0.8°C 40% 2.0 mph W3.2 kmh W 9.0 mph14.5 kmh 30.15 in1021.0 mb 0.00 in0.0 mm 0.00 in0.0 mm 0.00 in0.0 mm
02:10 PM 57.7°F14.3°C 32.3°F0.2°C 38% 5.0 mph W8.0 kmh W 11.0 mph17.7 kmh 30.15 in1021.0 mb 0.00 in0.0 mm 0.00 in0.0 mm 0.00 in0.0 mm
02:15 PM 57.1°F13.9°C 30.4°F-0.9°C 36% 5.0 mph W8.0 kmh W 12.0 mph19.3 kmh 30.15 in1021.0 mb 0.00 in0.0 mm 0.00 in0.0 mm 0.00 in0.0 mm
02:20 PM 57.3°F14.1°C 31.9°F-0.1°C 38% 4.0 mph W6.4 kmh W 10.0 mph16.1 kmh 30.15 in1021.0 mb 0.00 in0.0 mm 0.00 in0.0 mm 0.00 in0.0 mm
02:25 PM 57.9°F14.4°C 30.4°F-0.9°C 35% 3.0 mph W4.8 kmh W 8.0 mph12.9 kmh 30.15 in1021.0 mb 0.00 in0.0 mm 0.00 in0.0 mm 0.00 in0.0 mm
02:30 PM 58.3°F14.6°C 31.5°F-0.3°C 36% 2.0 mph W3.2 kmh W 8.0 mph12.9 kmh 30.15 in1021.0 mb 0.00 in0.0 mm 0.00 in0.0 mm 0.00 in0.0 mm
02:35 PM 58.4°F14.7°C 32.2°F0.1°C 37% 4.0 mph W6.4 kmh W 11.0 mph17.7 kmh 30.15 in1021.0 mb 0.00 in0.0 mm 0.00 in0.0 mm 0.00 in0.0 mm
02:40 PM 58.2°F14.6°C 31.4°F-0.3°C 36% 4.0 mph W6.4 kmh W 9.0 mph14.5 kmh 30.15 in1021.0 mb 0.00 in0.0 mm 0.00 in0.0 mm 0.00 in0.0 mm
02:45 PM 58.6°F14.8°C 33.7°F0.9°C 39% 3.0 mph W4.8 kmh W 10.0 mph16.1 kmh 30.14 in1020.7 mb 0.00 in0.0 mm 0.00 in0.0 mm 0.00 in0.0 mm
02:50 PM 58.5°F14.7°C 32.3°F0.2°C 37% 3.0 mph W4.8 kmh W 8.0 mph12.9 kmh 30.14 in1020.7 mb 0.00 in0.0 mm 0.00 in0.0 mm 0.00 in0.0 mm
02:55 PM 58.9°F14.9°C 31.3°F-0.4°C 35% 5.0 mph W8.0 kmh W 14.0 mph22.5 kmh 30.14 in1020.7 mb 0.00 in0.0 mm 0.00 in0.0 mm 0.00 in0.0 mm
03:00 PM 58.9°F14.9°C 29.9°F-1.2°C 33% 4.0 mph W6.4 kmh W 10.0 mph16.1 kmh 30.14 in1020.7 mb 0.00 in0.0 mm 0.00 in0.0 mm 0.00 in0.0 mm
03:05 PM 58.8°F14.9°C 29.0°F-1.7°C 32% 4.0 mph W6.4 kmh W 10.0 mph16.1 kmh 30.14 in1020.7 mb 0.00 in0.0 mm 0.00 in0.0 mm 0.00 in0.0 mm
03:10 PM 58.5°F14.7°C 28.8°F-1.8°C 32% 4.0 mph W6.4 kmh W 11.0 mph17.7 kmh 30.14 in1020.7 mb 0.00 in0.0 mm 0.00 in0.0 mm 0.00 in0.0 mm
03:15 PM 58.7°F14.8°C 30.4°F-0.9°C 34% 1.0 mph W1.6 kmh W 7.0 mph11.3 kmh 30.14 in1020.7 mb 0.00 in0.0 mm 0.00 in0.0 mm 0.00 in0.0 mm
03:20 PM 58.7°F14.8°C 28.9°F-1.7°C 32% 5.0 mph W8.0 kmh W 11.0 mph17.7 kmh 30.14 in1020.7 mb 0.00 in0.0 mm 0.00 in0.0 mm 0.00 in0.0 mm
03:25 PM 59.0°F15.0°C 29.9°F-1.2°C 33% 3.0 mph W4.8 kmh W 10.0 mph16.1 kmh 30.14 in1020.7 mb 0.00 in0.0 mm 0.00 in0.0 mm 0.00 in0.0 mm
03:30 PM 58.5°F14.7°C 28.8°F-1.8°C 32% 3.0 mph W4.8 kmh W 10.0 mph16.1 kmh 30.14 in1020.7 mb 0.00 in0.0 mm 0.00 in0.0 mm 0.00 in0.0 mm
03:35 PM 58.6°F14.8°C 29.6°F-1.3°C 33% 4.0 mph W6.4 kmh W 10.0 mph16.1 kmh 30.14 in1020.7 mb 0.00 in0.0 mm 0.00 in0.0 mm 0.00 in0.0 mm
03:40 PM 58.6°F14.8°C 29.6°F-1.3°C 33% 4.0 mph WSW6.4 kmh WSW 12.0 mph19.3 kmh 30.14 in1020.7 mb 0.00 in0.0 mm 0.00 in0.0 mm 0.00 in0.0 mm
03:45 PM 58.5°F14.7°C 30.2°F-1.0°C 34% 2.0 mph W3.2 kmh W 7.0 mph11.3 kmh 30.14 in1020.7 mb 0.00 in0.0 mm 0.00 in0.0 mm 0.00 in0.0 mm
03:50 PM 58.6°F14.8°C 29.6°F-1.3°C 33% 5.0 mph W8.0 kmh W 10.0 mph16.1 kmh 30.14 in1020.7 mb 0.00 in0.0 mm 0.00 in0.0 mm 0.00 in0.0 mm
03:55 PM 58.4°F14.7°C 30.1°F-1.1°C 34% 1.0 mph W1.6 kmh W 9.0 mph14.5 kmh 30.14 in1020.7 mb 0.00 in0.0 mm 0.00 in0.0 mm 0.00 in0.0 mm
04:00 PM 58.8°F14.9°C 29.8°F-1.2°C 33% 1.0 mph W1.6 kmh W 6.0 mph9.7 kmh 30.14 in1020.7 mb 0.00 in0.0 mm 0.00 in0.0 mm 0.00 in0.0 mm
04:05 PM 59.0°F15.0°C 29.9°F-1.2°C 33% 2.0 mph W3.2 kmh W 9.0 mph14.5 kmh 30.14 in1020.7 mb 0.00 in0.0 mm 0.00 in0.0 mm 0.00 in0.0 mm
04:10 PM 58.8°F14.9°C 29.8°F-1.2°C 33% 4.0 mph W6.4 kmh W 11.0 mph17.7 kmh 30.14 in1020.7 mb 0.00 in0.0 mm 0.00 in0.0 mm 0.00 in0.0 mm
04:15 PM 58.7°F14.8°C 28.9°F-1.7°C 32% 3.0 mph W4.8 kmh W 8.0 mph12.9 kmh 30.14 in1020.7 mb 0.00 in0.0 mm 0.00 in0.0 mm 0.00 in0.0 mm
04:20 PM 58.6°F14.8°C 28.8°F-1.8°C 32% 2.0 mph W3.2 kmh W 9.0 mph14.5 kmh 30.14 in1020.7 mb 0.00 in0.0 mm 0.00 in0.0 mm 0.00 in0.0 mm
04:25 PM 58.5°F14.7°C 28.8°F-1.8°C 32% 2.0 mph W3.2 kmh W 8.0 mph12.9 kmh 30.14 in1020.7 mb 0.00 in0.0 mm 0.00 in0.0 mm 0.00 in0.0 mm
04:30 PM 58.4°F14.7°C 28.7°F-1.8°C 32% 3.0 mph W4.8 kmh W 13.0 mph20.9 kmh 30.14 in1020.7 mb 0.00 in0.0 mm 0.00 in0.0 mm 0.00 in0.0 mm
04:35 PM 58.7°F14.8°C 30.4°F-0.9°C 34% 2.0 mph W3.2 kmh W 8.0 mph12.9 kmh 30.14 in1020.7 mb 0.00 in0.0 mm 0.00 in0.0 mm 0.00 in0.0 mm
04:40 PM 58.5°F14.7°C 30.2°F-1.0°C 34% 2.0 mph W3.2 kmh W 10.0 mph16.1 kmh 30.14 in1020.7 mb 0.00 in0.0 mm 0.00 in0.0 mm 0.00 in0.0 mm
04:45 PM 58.3°F14.6°C 30.1°F-1.1°C 34% 2.0 mph W3.2 kmh W 8.0 mph12.9 kmh 30.14 in1020.7 mb 0.00 in0.0 mm 0.00 in0.0 mm 0.00 in0.0 mm
04:50 PM 58.2°F14.6°C 30.0°F-1.1°C 34% 3.0 mph E4.8 kmh E 9.0 mph14.5 kmh 30.14 in1020.7 mb 0.00 in0.0 mm 0.00 in0.0 mm 0.00 in0.0 mm
04:55 PM 58.2°F14.6°C 30.0°F-1.1°C 34% 8.0 mph E12.9 kmh E 16.0 mph25.7 kmh 30.14 in1020.7 mb 0.00 in0.0 mm 0.00 in0.0 mm 0.00 in0.0 mm
05:00 PM 58.2°F14.6°C 30.0°F-1.1°C 34% 7.0 mph ENE11.3 kmh ENE 14.0 mph22.5 kmh 30.14 in1020.7 mb 0.00 in0.0 mm 0.00 in0.0 mm 0.00 in0.0 mm
05:05 PM 58.2°F14.6°C 30.0°F-1.1°C 34% 7.0 mph NE11.3 kmh NE 14.0 mph22.5 kmh 30.15 in1021.0 mb 0.00 in0.0 mm 0.00 in0.0 mm 0.00 in0.0 mm
05:10 PM 58.1°F14.5°C 29.9°F-1.2°C 34% 7.0 mph ESE11.3 kmh ESE 15.0 mph24.1 kmh 30.15 in1021.0 mb 0.00 in0.0 mm 0.00 in0.0 mm 0.00 in0.0 mm
05:15 PM 57.9°F14.4°C 29.0°F-1.7°C 33% 9.0 mph E14.5 kmh E 19.0 mph30.6 kmh 30.15 in1021.0 mb 0.00 in0.0 mm 0.00 in0.0 mm 0.00 in0.0 mm
05:20 PM 57.8°F14.3°C 28.9°F-1.7°C 33% 11.0 mph E17.7 kmh E 17.0 mph27.4 kmh 30.15 in1021.0 mb 0.00 in0.0 mm 0.00 in0.0 mm 0.00 in0.0 mm
05:25 PM 57.7°F14.3°C 29.5°F-1.4°C 34% 7.0 mph ESE11.3 kmh ESE 16.0 mph25.7 kmh 30.15 in1021.0 mb 0.00 in0.0 mm 0.00 in0.0 mm 0.00 in0.0 mm
05:30 PM 57.6°F14.2°C 28.0°F-2.2°C 32% 7.0 mph ESE11.3 kmh ESE 15.0 mph24.1 kmh 30.15 in1021.0 mb 0.00 in0.0 mm 0.00 in0.0 mm 0.00 in0.0 mm
05:35 PM 57.5°F14.2°C 28.6°F-1.9°C 33% 9.0 mph ESE14.5 kmh ESE 15.0 mph24.1 kmh 30.16 in1021.3 mb 0.00 in0.0 mm 0.00 in0.0 mm 0.00 in0.0 mm
05:40 PM 57.2°F14.0°C 27.6°F-2.4°C 32% 9.0 mph ESE14.5 kmh ESE 14.0 mph22.5 kmh 30.16 in1021.3 mb 0.00 in0.0 mm 0.00 in0.0 mm 0.00 in0.0 mm
05:45 PM 57.1°F13.9°C 28.3°F-2.1°C 33% 8.0 mph ESE12.9 kmh ESE 14.0 mph22.5 kmh 30.16 in1021.3 mb 0.00 in0.0 mm 0.00 in0.0 mm 0.00 in0.0 mm
05:50 PM 57.1°F13.9°C 28.3°F-2.1°C 33% 8.0 mph ESE12.9 kmh ESE 18.0 mph29.0 kmh 30.16 in1021.3 mb 0.00 in0.0 mm 0.00 in0.0 mm 0.00 in0.0 mm
05:55 PM 57.0°F13.9°C 28.2°F-2.1°C 33% 8.0 mph ESE12.9 kmh ESE 14.0 mph22.5 kmh 30.16 in1021.3 mb 0.00 in0.0 mm 0.00 in0.0 mm 0.00 in0.0 mm
06:00 PM 56.9°F13.8°C 28.1°F-2.2°C 33% 8.0 mph E12.9 kmh E 12.0 mph19.3 kmh 30.16 in1021.3 mb 0.00 in0.0 mm 0.00 in0.0 mm 0.00 in0.0 mm
06:05 PM 56.8°F13.8°C 28.7°F-1.8°C 34% 9.0 mph E14.5 kmh E 15.0 mph24.1 kmh 30.16 in1021.3 mb 0.00 in0.0 mm 0.00 in0.0 mm 0.00 in0.0 mm
06:10 PM 56.7°F13.7°C 28.7°F-1.8°C 34% 7.0 mph ESE11.3 kmh ESE 13.0 mph20.9 kmh 30.16 in1021.3 mb 0.00 in0.0 mm 0.00 in0.0 mm 0.00 in0.0 mm
06:15 PM 56.5°F13.6°C 29.2°F-1.6°C 35% 9.0 mph E14.5 kmh E 17.0 mph27.4 kmh 30.16 in1021.3 mb 0.00 in0.0 mm 0.00 in0.0 mm 0.00 in0.0 mm
06:20 PM 56.3°F13.5°C 29.0°F-1.7°C 35% 6.0 mph ESE9.7 kmh ESE 11.0 mph17.7 kmh 30.16 in1021.3 mb 0.00 in0.0 mm 0.00 in0.0 mm 0.00 in0.0 mm
06:25 PM 56.0°F13.3°C 28.7°F-1.8°C 35% 3.0 mph ESE4.8 kmh ESE 8.0 mph12.9 kmh 30.17 in1021.7 mb 0.00 in0.0 mm 0.00 in0.0 mm 0.00 in0.0 mm
06:30 PM 56.0°F13.3°C 28.7°F-1.8°C 35% 7.0 mph E11.3 kmh E 12.0 mph19.3 kmh 30.17 in1021.7 mb 0.00 in0.0 mm 0.00 in0.0 mm 0.00 in0.0 mm
06:35 PM 55.9°F13.3°C 28.7°F-1.8°C 35% 5.0 mph ESE8.0 kmh ESE 10.0 mph16.1 kmh 30.17 in1021.7 mb 0.00 in0.0 mm 0.00 in0.0 mm 0.00 in0.0 mm
06:40 PM 55.7°F13.2°C 29.2°F-1.6°C 36% 6.0 mph ESE9.7 kmh ESE 13.0 mph20.9 kmh 30.17 in1021.7 mb 0.00 in0.0 mm 0.00 in0.0 mm 0.00 in0.0 mm
06:45 PM 55.5°F13.1°C 29.0°F-1.7°C 36% 7.0 mph ESE11.3 kmh ESE 13.0 mph20.9 kmh 30.17 in1021.7 mb 0.00 in0.0 mm 0.00 in0.0 mm 0.00 in0.0 mm
06:50 PM 55.3°F12.9°C 29.5°F-1.4°C 37% 5.0 mph ESE8.0 kmh ESE 10.0 mph16.1 kmh 30.17 in1021.7 mb 0.00 in0.0 mm 0.00 in0.0 mm 0.00 in0.0 mm
06:55 PM 55.1°F12.8°C 29.3°F-1.5°C 37% 3.0 mph E4.8 kmh E 10.0 mph16.1 kmh 30.17 in1021.7 mb 0.00 in0.0 mm 0.00 in0.0 mm 0.00 in0.0 mm
07:00 PM 54.4°F12.4°C 30.0°F-1.1°C 39% 2.0 mph ENE3.2 kmh ENE 5.0 mph8.0 kmh 30.17 in1021.7 mb 0.00 in0.0 mm 0.00 in0.0 mm 0.00 in0.0 mm
07:05 PM 53.6°F12.0°C 30.5°F-0.8°C 41% 3.0 mph ENE4.8 kmh ENE 8.0 mph12.9 kmh 30.18 in1022.0 mb 0.00 in0.0 mm 0.00 in0.0 mm 0.00 in0.0 mm
07:10 PM 53.2°F11.8°C 30.7°F-0.7°C 42% 5.0 mph E8.0 kmh E 10.0 mph16.1 kmh 30.18 in1022.0 mb 0.00 in0.0 mm 0.00 in0.0 mm 0.00 in0.0 mm
07:15 PM 53.1°F11.7°C 30.6°F-0.8°C 42% 4.0 mph E6.4 kmh E 9.0 mph14.5 kmh 30.18 in1022.0 mb 0.00 in0.0 mm 0.00 in0.0 mm 0.00 in0.0 mm
07:20 PM 52.7°F11.5°C 30.8°F-0.7°C 43% 4.0 mph ENE6.4 kmh ENE 8.0 mph12.9 kmh 30.18 in1022.0 mb 0.00 in0.0 mm 0.00 in0.0 mm 0.00 in0.0 mm
07:25 PM 52.3°F11.3°C 31.0°F-0.6°C 44% 2.0 mph ENE3.2 kmh ENE 6.0 mph9.7 kmh 30.18 in1022.0 mb 0.00 in0.0 mm 0.00 in0.0 mm 0.00 in0.0 mm
07:30 PM 51.9°F11.1°C 30.7°F-0.7°C 44% 4.0 mph ENE6.4 kmh ENE 8.0 mph12.9 kmh 30.18 in1022.0 mb 0.00 in0.0 mm 0.00 in0.0 mm 0.00 in0.0 mm
07:35 PM 51.7°F10.9°C 31.1°F-0.5°C 45% 6.0 mph ENE9.7 kmh ENE 13.0 mph20.9 kmh 30.19 in1022.4 mb 0.00 in0.0 mm 0.00 in0.0 mm 0.00 in0.0 mm
07:40 PM 51.7°F10.9°C 32.6°F0.3°C 48% 11.0 mph ENE17.7 kmh ENE 18.0 mph29.0 kmh 30.19 in1022.4 mb 0.00 in0.0 mm 0.00 in0.0 mm 0.00 in0.0 mm
07:45 PM 51.5°F10.8°C 33.5°F0.8°C 50% 9.0 mph ENE14.5 kmh ENE 15.0 mph24.1 kmh 30.19 in1022.4 mb 0.00 in0.0 mm 0.00 in0.0 mm 0.00 in0.0 mm
07:50 PM 51.2°F10.7°C 34.2°F1.2°C 52% 9.0 mph ENE14.5 kmh ENE 15.0 mph24.1 kmh 30.19 in1022.4 mb 0.00 in0.0 mm 0.00 in0.0 mm 0.00 in0.0 mm
07:55 PM 51.0°F10.6°C 34.0°F1.1°C 52% 12.0 mph ENE19.3 kmh ENE 21.0 mph33.8 kmh 30.19 in1022.4 mb 0.00 in0.0 mm 0.00 in0.0 mm 0.00 in0.0 mm
08:00 PM 50.7°F10.4°C 34.2°F1.2°C 53% 10.0 mph ENE16.1 kmh ENE 21.0 mph33.8 kmh 30.20 in1022.7 mb 0.00 in0.0 mm 0.00 in0.0 mm 0.00 in0.0 mm
08:05 PM 50.5°F10.3°C 34.0°F1.1°C 53% 12.0 mph ENE19.3 kmh ENE 19.0 mph30.6 kmh 30.20 in1022.7 mb 0.00 in0.0 mm 0.00 in0.0 mm 0.00 in0.0 mm
08:10 PM 50.2°F10.1°C 33.7°F0.9°C 53% 10.0 mph ENE16.1 kmh ENE 16.0 mph25.7 kmh 30.20 in1022.7 mb 0.00 in0.0 mm 0.00 in0.0 mm 0.00 in0.0 mm
08:15 PM 49.9°F9.9°C 33.9°F1.1°C 54% 8.0 mph ENE12.9 kmh ENE 14.0 mph22.5 kmh 30.20 in1022.7 mb 0.00 in0.0 mm 0.00 in0.0 mm 0.00 in0.0 mm
08:20 PM 49.2°F9.6°C 34.6°F1.4°C 57% 7.0 mph ENE11.3 kmh ENE 13.0 mph20.9 kmh 30.20 in1022.7 mb 0.00 in0.0 mm 0.00 in0.0 mm 0.00 in0.0 mm
08:25 PM 48.9°F9.4°C 34.8°F1.6°C 58% 7.0 mph ENE11.3 kmh ENE 12.0 mph19.3 kmh 30.21 in1023.0 mb 0.00 in0.0 mm 0.00 in0.0 mm 0.00 in0.0 mm
08:30 PM 48.6°F9.2°C 34.9°F1.6°C 59% 7.0 mph ENE11.3 kmh ENE 13.0 mph20.9 kmh 30.21 in1023.0 mb 0.00 in0.0 mm 0.00 in0.0 mm 0.00 in0.0 mm
08:35 PM 48.5°F9.2°C 34.4°F1.3°C 58% 9.0 mph ENE14.5 kmh ENE 15.0 mph24.1 kmh 30.21 in1023.0 mb 0.00 in0.0 mm 0.00 in0.0 mm 0.00 in0.0 mm
08:40 PM 48.2°F9.0°C 34.6°F1.4°C 59% 7.0 mph ENE11.3 kmh ENE 13.0 mph20.9 kmh 30.21 in1023.0 mb 0.00 in0.0 mm 0.00 in0.0 mm 0.00 in0.0 mm
08:45 PM 47.9°F8.8°C 34.3°F1.3°C 59% 8.0 mph ENE12.9 kmh ENE 12.0 mph19.3 kmh 30.21 in1023.0 mb 0.00 in0.0 mm 0.00 in0.0 mm 0.00 in0.0 mm
08:50 PM 47.7°F8.7°C 34.5°F1.4°C 60% 7.0 mph ENE11.3 kmh ENE 12.0 mph19.3 kmh 30.22 in1023.4 mb 0.00 in0.0 mm 0.00 in0.0 mm 0.00 in0.0 mm
08:55 PM 47.4°F8.6°C 34.2°F1.2°C 60% 6.0 mph ENE9.7 kmh ENE 14.0 mph22.5 kmh 30.22 in1023.4 mb 0.00 in0.0 mm 0.00 in0.0 mm 0.00 in0.0 mm
09:00 PM 47.0°F8.3°C 34.3°F1.3°C 61% 6.0 mph ENE9.7 kmh ENE 12.0 mph19.3 kmh 30.22 in1023.4 mb 0.00 in0.0 mm 0.00 in0.0 mm 0.00 in0.0 mm
09:05 PM 46.8°F8.2°C 34.1°F1.2°C 61% 7.0 mph ENE11.3 kmh ENE 12.0 mph19.3 kmh 30.22 in1023.4 mb 0.00 in0.0 mm 0.00 in0.0 mm 0.00 in0.0 mm
09:10 PM 46.8°F8.2°C 34.1°F1.2°C 61% 8.0 mph ENE12.9 kmh ENE 12.0 mph19.3 kmh 30.22 in1023.4 mb 0.00 in0.0 mm 0.00 in0.0 mm 0.00 in0.0 mm
09:15 PM 46.6°F8.1°C 33.9°F1.1°C 61% 8.0 mph ENE12.9 kmh ENE 13.0 mph20.9 kmh 30.22 in1023.4 mb 0.00 in0.0 mm 0.00 in0.0 mm 0.00 in0.0 mm
09:20 PM 46.6°F8.1°C 33.9°F1.1°C 61% 8.0 mph ENE12.9 kmh ENE 13.0 mph20.9 kmh 30.22 in1023.4 mb 0.00 in0.0 mm 0.00 in0.0 mm 0.00 in0.0 mm
09:25 PM 46.5°F8.1°C 33.8°F1.0°C 61% 8.0 mph ENE12.9 kmh ENE 14.0 mph22.5 kmh 30.22 in1023.4 mb 0.00 in0.0 mm 0.00 in0.0 mm 0.00 in0.0 mm
09:30 PM 46.3°F7.9°C 33.6°F0.9°C 61% 8.0 mph ENE12.9 kmh ENE 14.0 mph22.5 kmh 30.22 in1023.4 mb 0.00 in0.0 mm 0.00 in0.0 mm 0.00 in0.0 mm
09:35 PM 46.3°F7.9°C 33.6°F0.9°C 61% 8.0 mph ENE12.9 kmh ENE 13.0 mph20.9 kmh 30.22 in1023.4 mb 0.00 in0.0 mm 0.00 in0.0 mm 0.00 in0.0 mm
09:40 PM 46.1°F7.8°C 33.4°F0.8°C 61% 7.0 mph ENE11.3 kmh ENE 11.0 mph17.7 kmh 30.22 in1023.4 mb 0.00 in0.0 mm 0.00 in0.0 mm 0.00 in0.0 mm
09:45 PM 45.8°F7.7°C 33.1°F0.6°C 61% 6.0 mph ENE9.7 kmh ENE 12.0 mph19.3 kmh 30.22 in1023.4 mb 0.00 in0.0 mm 0.00 in0.0 mm 0.00 in0.0 mm
09:50 PM 45.6°F7.6°C 32.9°F0.5°C 61% 7.0 mph ENE11.3 kmh ENE 14.0 mph22.5 kmh 30.22 in1023.4 mb 0.00 in0.0 mm 0.00 in0.0 mm 0.00 in0.0 mm
09:55 PM 45.7°F7.6°C 33.0°F0.6°C 61% 8.0 mph ENE12.9 kmh ENE 13.0 mph20.9 kmh 30.23 in1023.7 mb 0.00 in0.0 mm 0.00 in0.0 mm 0.00 in0.0 mm
10:00 PM 45.6°F7.6°C 32.9°F0.5°C 61% 7.0 mph ENE11.3 kmh ENE 12.0 mph19.3 kmh 30.23 in1023.7 mb 0.00 in0.0 mm 0.00 in0.0 mm 0.00 in0.0 mm
10:05 PM 45.5°F7.5°C 32.8°F0.4°C 61% 7.0 mph E11.3 kmh E 12.0 mph19.3 kmh 30.23 in1023.7 mb 0.00 in0.0 mm 0.00 in0.0 mm 0.00 in0.0 mm
10:10 PM 45.4°F7.4°C 32.7°F0.4°C 61% 8.0 mph E12.9 kmh E 12.0 mph19.3 kmh 30.23 in1023.7 mb 0.00 in0.0 mm 0.00 in0.0 mm 0.00 in0.0 mm
10:15 PM 45.3°F7.4°C 32.7°F0.4°C 61% 8.0 mph ENE12.9 kmh ENE 13.0 mph20.9 kmh 30.23 in1023.7 mb 0.00 in0.0 mm 0.00 in0.0 mm 0.00 in0.0 mm
10:20 PM 45.1°F7.3°C 32.9°F0.5°C 62% 6.0 mph E9.7 kmh E 12.0 mph19.3 kmh 30.23 in1023.7 mb 0.00 in0.0 mm 0.00 in0.0 mm 0.00 in0.0 mm
10:25 PM 45.1°F7.3°C 32.9°F0.5°C 62% 8.0 mph ENE12.9 kmh ENE 14.0 mph22.5 kmh 30.23 in1023.7 mb 0.00 in0.0 mm 0.00 in0.0 mm 0.00 in0.0 mm
10:30 PM 45.0°F7.2°C 32.8°F0.4°C 62% 8.0 mph E12.9 kmh E 15.0 mph24.1 kmh 30.23 in1023.7 mb 0.00 in0.0 mm 0.00 in0.0 mm 0.00 in0.0 mm
10:35 PM 45.0°F7.2°C 33.2°F0.7°C 63% 7.0 mph ENE11.3 kmh ENE 13.0 mph20.9 kmh 30.23 in1023.7 mb 0.00 in0.0 mm 0.00 in0.0 mm 0.00 in0.0 mm
10:40 PM 44.8°F7.1°C 33.0°F0.6°C 63% 6.0 mph E9.7 kmh E 12.0 mph19.3 kmh 30.23 in1023.7 mb 0.00 in0.0 mm 0.00 in0.0 mm 0.00 in0.0 mm
10:45 PM 44.7°F7.1°C 32.9°F0.5°C 63% 7.0 mph E11.3 kmh E 11.0 mph17.7 kmh 30.23 in1023.7 mb 0.00 in0.0 mm 0.00 in0.0 mm 0.00 in0.0 mm
10:50 PM 44.6°F7.0°C 32.8°F0.4°C 63% 7.0 mph E11.3 kmh E 12.0 mph19.3 kmh 30.23 in1023.7 mb 0.00 in0.0 mm 0.00 in0.0 mm 0.00 in0.0 mm
10:55 PM 44.5°F6.9°C 33.1°F0.6°C 64% 7.0 mph E11.3 kmh E 12.0 mph19.3 kmh 30.24 in1024.0 mb 0.00 in0.0 mm 0.00 in0.0 mm 0.00 in0.0 mm
11:00 PM 44.4°F6.9°C 33.0°F0.6°C 64% 7.0 mph E11.3 kmh E 11.0 mph17.7 kmh 30.23 in1023.7 mb 0.00 in0.0 mm 0.00 in0.0 mm 0.00 in0.0 mm
11:05 PM 44.2°F6.8°C 32.8°F0.4°C 64% 7.0 mph ENE11.3 kmh ENE 11.0 mph17.7 kmh 30.24 in1024.0 mb 0.00 in0.0 mm 0.00 in0.0 mm 0.00 in0.0 mm
11:10 PM 44.1°F6.7°C 33.1°F0.6°C 65% 7.0 mph E11.3 kmh E 11.0 mph17.7 kmh 30.24 in1024.0 mb 0.00 in0.0 mm 0.00 in0.0 mm 0.00 in0.0 mm
11:15 PM 43.9°F6.6°C 32.9°F0.5°C 65% 7.0 mph ENE11.3 kmh ENE 13.0 mph20.9 kmh 30.24 in1024.0 mb 0.00 in0.0 mm 0.00 in0.0 mm 0.00 in0.0 mm
11:20 PM 43.9°F6.6°C 32.9°F0.5°C 65% 7.0 mph ENE11.3 kmh ENE 13.0 mph20.9 kmh 30.24 in1024.0 mb 0.00 in0.0 mm 0.00 in0.0 mm 0.00 in0.0 mm
11:25 PM 43.7°F6.5°C 32.7°F0.4°C 65% 7.0 mph ENE11.3 kmh ENE 13.0 mph20.9 kmh 30.24 in1024.0 mb 0.00 in0.0 mm 0.00 in0.0 mm 0.00 in0.0 mm
11:30 PM 43.6°F6.4°C 33.0°F0.6°C 66% 7.0 mph ENE11.3 kmh ENE 13.0 mph20.9 kmh 30.24 in1024.0 mb 0.00 in0.0 mm 0.00 in0.0 mm 0.00 in0.0 mm
11:35 PM 43.5°F6.4°C 32.9°F0.5°C 66% 6.0 mph ENE9.7 kmh ENE 11.0 mph17.7 kmh 30.24 in1024.0 mb 0.00 in0.0 mm 0.00 in0.0 mm 0.00 in0.0 mm
11:40 PM 43.4°F6.3°C 32.8°F0.4°C 66% 7.0 mph ENE11.3 kmh ENE 10.0 mph16.1 kmh 30.24 in1024.0 mb 0.00 in0.0 mm 0.00 in0.0 mm 0.00 in0.0 mm
11:45 PM 43.3°F6.3°C 33.1°F0.6°C 67% 6.0 mph E9.7 kmh E 11.0 mph17.7 kmh 30.24 in1024.0 mb 0.00 in0.0 mm 0.00 in0.0 mm 0.00 in0.0 mm
11:50 PM 43.1°F6.2°C 32.9°F0.5°C 67% 7.0 mph ENE11.3 kmh ENE 11.0 mph17.7 kmh 30.24 in1024.0 mb 0.00 in0.0 mm 0.00 in0.0 mm 0.00 in0.0 mm
11:55 PM 43.0°F6.1°C 32.8°F0.4°C 67% 7.0 mph ENE11.3 kmh ENE 11.0 mph17.7 kmh 30.24 in1024.0 mb 0.00 in0.0 mm 0.00 in0.0 mm 0.00 in0.0 mm